sensor_id;sensor_type;location;lat;lon;timestamp;temperature;humidity
75022;SHT31;63583;49.976;20.182;2023-04-01T00:00:30;10.67;67.07
75022;SHT31;63583;49.976;20.182;2023-04-01T00:03:13;10.69;66.58
75022;SHT31;63583;49.976;20.182;2023-04-01T00:05:39;10.70;66.77
75022;SHT31;63583;49.976;20.182;2023-04-01T00:08:05;10.63;67.14
75022;SHT31;63583;49.976;20.182;2023-04-01T00:10:31;10.59;67.48
75022;SHT31;63583;49.976;20.182;2023-04-01T00:12:56;10.50;67.96
75022;SHT31;63583;49.976;20.182;2023-04-01T00:15:22;10.52;67.81
75022;SHT31;63583;49.976;20.182;2023-04-01T00:17:48;10.50;68.08
75022;SHT31;63583;49.976;20.182;2023-04-01T00:20:14;10.33;68.75
75022;SHT31;63583;49.976;20.182;2023-04-01T00:22:40;10.33;69.05
75022;SHT31;63583;49.976;20.182;2023-04-01T00:25:06;10.28;69.37
75022;SHT31;63583;49.976;20.182;2023-04-01T00:27:32;10.26;69.53
75022;SHT31;63583;49.976;20.182;2023-04-01T00:29:58;10.28;69.86
75022;SHT31;63583;49.976;20.182;2023-04-01T00:32:24;10.22;69.94
75022;SHT31;63583;49.976;20.182;2023-04-01T00:34:50;10.32;69.76
75022;SHT31;63583;49.976;20.182;2023-04-01T00:37:17;10.24;70.30
75022;SHT31;63583;49.976;20.182;2023-04-01T00:39:43;10.14;70.62
75022;SHT31;63583;49.976;20.182;2023-04-01T00:42:10;10.05;70.98
75022;SHT31;63583;49.976;20.182;2023-04-01T00:44:37;9.98;71.17
75022;SHT31;63583;49.976;20.182;2023-04-01T00:47:02;9.97;71.21
75022;SHT31;63583;49.976;20.182;2023-04-01T00:49:34;9.95;71.38
75022;SHT31;63583;49.976;20.182;2023-04-01T00:52:03;9.91;71.81
75022;SHT31;63583;49.976;20.182;2023-04-01T00:54:30;9.83;71.92
75022;SHT31;63583;49.976;20.182;2023-04-01T00:56:59;9.91;71.59
75022;SHT31;63583;49.976;20.182;2023-04-01T00:59:40;9.77;72.16
75022;SHT31;63583;49.976;20.182;2023-04-01T01:02:08;9.61;72.69
75022;SHT31;63583;49.976;20.182;2023-04-01T01:04:36;9.80;72.16
75022;SHT31;63583;49.976;20.182;2023-04-01T01:15:33;9.64;73.18
75022;SHT31;63583;49.976;20.182;2023-04-01T01:18:09;9.63;73.18
75022;SHT31;63583;49.976;20.182;2023-04-01T01:20:42;9.57;73.32
75022;SHT31;63583;49.976;20.182;2023-04-01T01:37:32;9.60;73.60
75022;SHT31;63583;49.976;20.182;2023-04-01T01:40:03;9.64;73.62
75022;SHT31;63583;49.976;20.182;2023-04-01T01:42:30;9.61;73.55
75022;SHT31;63583;49.976;20.182;2023-04-01T01:44:59;9.71;73.14
75022;SHT31;63583;49.976;20.182;2023-04-01T01:47:25;9.77;73.24
75022;SHT31;63583;49.976;20.182;2023-04-01T01:49:54;9.73;73.05
75022;SHT31;63583;49.976;20.182;2023-04-01T01:52:21;9.73;73.29
75022;SHT31;63583;49.976;20.182;2023-04-01T01:54:52;9.76;73.15
75022;SHT31;63583;49.976;20.182;2023-04-01T01:57:23;9.81;73.27
75022;SHT31;63583;49.976;20.182;2023-04-01T01:59:52;9.80;72.89
75022;SHT31;63583;49.976;20.182;2023-04-01T02:02:20;9.73;73.16
75022;SHT31;63583;49.976;20.182;2023-04-01T02:04:47;9.69;73.33
75022;SHT31;63583;49.976;20.182;2023-04-01T02:07:23;9.91;72.64
75022;SHT31;63583;49.976;20.182;2023-04-01T02:09:51;9.83;72.66
75022;SHT31;63583;49.976;20.182;2023-04-01T02:12:18;9.91;72.65
75022;SHT31;63583;49.976;20.182;2023-04-01T02:17:24;9.87;73.13
75022;SHT31;63583;49.976;20.182;2023-04-01T02:19:54;9.84;73.07
75022;SHT31;63583;49.976;20.182;2023-04-01T02:22:27;9.74;73.39
75022;SHT31;63583;49.976;20.182;2023-04-01T02:24:58;9.70;73.78
75022;SHT31;63583;49.976;20.182;2023-04-01T02:27:25;9.80;73.47
75022;SHT31;63583;49.976;20.182;2023-04-01T02:29:51;9.77;73.63
75022;SHT31;63583;49.976;20.182;2023-04-01T02:32:18;9.74;73.32
75022;SHT31;63583;49.976;20.182;2023-04-01T02:34:45;9.80;73.26
75022;SHT31;63583;49.976;20.182;2023-04-01T02:37:11;9.80;73.29
75022;SHT31;63583;49.976;20.182;2023-04-01T02:39:38;9.73;73.19
75022;SHT31;63583;49.976;20.182;2023-04-01T02:42:03;9.66;73.78
75022;SHT31;63583;49.976;20.182;2023-04-01T02:44:29;9.64;73.52
75022;SHT31;63583;49.976;20.182;2023-04-01T02:46:55;9.73;73.11
75022;SHT31;63583;49.976;20.182;2023-04-01T02:49:21;9.71;73.25
75022;SHT31;63583;49.976;20.182;2023-04-01T02:51:46;9.63;73.55
75022;SHT31;63583;49.976;20.182;2023-04-01T02:54:12;9.54;73.77
75022;SHT31;63583;49.976;20.182;2023-04-01T02:56:38;9.50;73.94
75022;SHT31;63583;49.976;20.182;2023-04-01T02:59:03;9.51;73.98
75022;SHT31;63583;49.976;20.182;2023-04-01T03:01:29;9.53;73.85
75022;SHT31;63583;49.976;20.182;2023-04-01T03:03:55;9.44;74.05
75022;SHT31;63583;49.976;20.182;2023-04-01T03:06:21;9.40;74.15
75022;SHT31;63583;49.976;20.182;2023-04-01T03:08:46;9.47;73.89
75022;SHT31;63583;49.976;20.182;2023-04-01T03:11:12;9.43;73.95
75022;SHT31;63583;49.976;20.182;2023-04-01T03:13:38;9.28;74.22
75022;SHT31;63583;49.976;20.182;2023-04-01T03:16:04;9.29;74.59
75022;SHT31;63583;49.976;20.182;2023-04-01T03:18:30;9.25;74.80
75022;SHT31;63583;49.976;20.182;2023-04-01T03:20:56;9.19;74.95
75022;SHT31;63583;49.976;20.182;2023-04-01T03:23:22;9.25;74.82
75022;SHT31;63583;49.976;20.182;2023-04-01T03:25:49;9.26;74.64
75022;SHT31;63583;49.976;20.182;2023-04-01T03:28:15;9.30;74.90
75022;SHT31;63583;49.976;20.182;2023-04-01T03:30:41;9.15;75.33
75022;SHT31;63583;49.976;20.182;2023-04-01T03:33:06;9.07;75.71
75022;SHT31;63583;49.976;20.182;2023-04-01T03:35:32;9.09;75.79
75022;SHT31;63583;49.976;20.182;2023-04-01T03:37:58;9.14;75.69
75022;SHT31;63583;49.976;20.182;2023-04-01T03:40:24;8.93;76.39
75022;SHT31;63583;49.976;20.182;2023-04-01T03:42:51;8.95;76.46
75022;SHT31;63583;49.976;20.182;2023-04-01T03:45:17;8.97;76.40
75022;SHT31;63583;49.976;20.182;2023-04-01T03:47:43;9.01;76.49
75022;SHT31;63583;49.976;20.182;2023-04-01T03:50:09;8.98;76.43
75022;SHT31;63583;49.976;20.182;2023-04-01T03:52:38;8.99;76.73
75022;SHT31;63583;49.976;20.182;2023-04-01T03:55:04;8.95;76.78
75022;SHT31;63583;49.976;20.182;2023-04-01T03:57:33;8.97;76.92
75022;SHT31;63583;49.976;20.182;2023-04-01T03:59:58;8.93;77.33
75022;SHT31;63583;49.976;20.182;2023-04-01T04:02:24;8.97;77.15
75022;SHT31;63583;49.976;20.182;2023-04-01T04:04:50;9.04;76.86
75022;SHT31;63583;49.976;20.182;2023-04-01T04:07:16;9.02;76.98
75022;SHT31;63583;49.976;20.182;2023-04-01T04:09:41;9.12;77.11
75022;SHT31;63583;49.976;20.182;2023-04-01T04:12:07;9.20;76.49
75022;SHT31;63583;49.976;20.182;2023-04-01T04:14:32;9.15;76.58
75022;SHT31;63583;49.976;20.182;2023-04-01T04:16:58;9.11;76.88
75022;SHT31;63583;49.976;20.182;2023-04-01T04:19:24;9.09;77.22
75022;SHT31;63583;49.976;20.182;2023-04-01T04:21:49;9.11;76.80
75022;SHT31;63583;49.976;20.182;2023-04-01T04:24:15;9.02;77.37
75022;SHT31;63583;49.976;20.182;2023-04-01T04:26:41;8.92;77.52
75022;SHT31;63583;49.976;20.182;2023-04-01T04:29:06;8.89;77.70
75022;SHT31;63583;49.976;20.182;2023-04-01T04:31:32;8.84;77.76
75022;SHT31;63583;49.976;20.182;2023-04-01T04:33:59;8.88;78.03
75022;SHT31;63583;49.976;20.182;2023-04-01T04:36:25;8.89;77.76
75022;SHT31;63583;49.976;20.182;2023-04-01T04:38:51;8.89;78.00
75022;SHT31;63583;49.976;20.182;2023-04-01T04:41:18;8.89;77.93
75022;SHT31;63583;49.976;20.182;2023-04-01T04:43:49;8.92;78.15
75022;SHT31;63583;49.976;20.182;2023-04-01T04:46:16;8.89;78.26
75022;SHT31;63583;49.976;20.182;2023-04-01T04:48:42;9.09;77.66
75022;SHT31;63583;49.976;20.182;2023-04-01T04:51:13;9.23;77.06
75022;SHT31;63583;49.976;20.182;2023-04-01T04:53:39;9.15;76.97
75022;SHT31;63583;49.976;20.182;2023-04-01T04:56:06;9.30;77.04
75022;SHT31;63583;49.976;20.182;2023-04-01T04:58:31;9.32;76.32
75022;SHT31;63583;49.976;20.182;2023-04-01T05:00:57;9.33;76.32
75022;SHT31;63583;49.976;20.182;2023-04-01T05:03:22;9.39;75.98
75022;SHT31;63583;49.976;20.182;2023-04-01T05:05:52;9.42;75.82
75022;SHT31;63583;49.976;20.182;2023-04-01T05:08:18;9.38;76.11
75022;SHT31;63583;49.976;20.182;2023-04-01T05:10:44;9.36;76.16
75022;SHT31;63583;49.976;20.182;2023-04-01T05:13:10;9.46;76.02
75022;SHT31;63583;49.976;20.182;2023-04-01T05:15:36;9.43;76.14
75022;SHT31;63583;49.976;20.182;2023-04-01T05:18:02;9.60;75.42
75022;SHT31;63583;49.976;20.182;2023-04-01T05:20:28;9.59;75.63
75022;SHT31;63583;49.976;20.182;2023-04-01T05:22:58;9.56;75.99
75022;SHT31;63583;49.976;20.182;2023-04-01T05:25:24;9.69;75.26
75022;SHT31;63583;49.976;20.182;2023-04-01T05:27:50;9.78;75.07
75022;SHT31;63583;49.976;20.182;2023-04-01T05:30:15;9.81;75.06
75022;SHT31;63583;49.976;20.182;2023-04-01T05:32:41;9.86;75.03
75022;SHT31;63583;49.976;20.182;2023-04-01T05:35:07;9.84;75.53
75022;SHT31;63583;49.976;20.182;2023-04-01T05:37:36;9.97;75.19
75022;SHT31;63583;49.976;20.182;2023-04-01T05:40:03;9.99;74.60
75022;SHT31;63583;49.976;20.182;2023-04-01T05:42:29;10.09;74.68
75022;SHT31;63583;49.976;20.182;2023-04-01T05:44:55;10.16;74.65
75022;SHT31;63583;49.976;20.182;2023-04-01T05:47:21;10.24;74.48
75022;SHT31;63583;49.976;20.182;2023-04-01T05:49:47;10.29;74.39
75022;SHT31;63583;49.976;20.182;2023-04-01T05:52:13;10.28;74.76
75022;SHT31;63583;49.976;20.182;2023-04-01T05:54:39;10.35;75.29
75022;SHT31;63583;49.976;20.182;2023-04-01T05:57:04;10.19;76.39
75022;SHT31;63583;49.976;20.182;2023-04-01T05:59:30;10.15;76.33
75022;SHT31;63583;49.976;20.182;2023-04-01T06:02:00;10.16;76.10
75022;SHT31;63583;49.976;20.182;2023-04-01T06:04:28;10.18;76.41
75022;SHT31;63583;49.976;20.182;2023-04-01T06:06:57;10.15;76.48
75022;SHT31;63583;49.976;20.182;2023-04-01T06:09:27;10.14;76.96
75022;SHT31;63583;49.976;20.182;2023-04-01T06:18:08;10.50;76.65
75022;SHT31;63583;49.976;20.182;2023-04-01T06:26:23;10.79;76.24
75022;SHT31;63583;49.976;20.182;2023-04-01T06:43:00;11.38;71.11
75022;SHT31;63583;49.976;20.182;2023-04-01T06:45:49;11.20;71.78
75022;SHT31;63583;49.976;20.182;2023-04-01T06:53:56;11.10;72.20
75022;SHT31;63583;49.976;20.182;2023-04-01T06:56:26;11.08;72.58
75022;SHT31;63583;49.976;20.182;2023-04-01T06:58:58;11.35;71.38
75022;SHT31;63583;49.976;20.182;2023-04-01T07:01:29;11.34;71.51
75022;SHT31;63583;49.976;20.182;2023-04-01T07:06:39;11.58;71.36
75022;SHT31;63583;49.976;20.182;2023-04-01T07:09:16;11.54;71.64
75022;SHT31;63583;49.976;20.182;2023-04-01T07:11:42;11.36;71.50
75022;SHT31;63583;49.976;20.182;2023-04-01T07:14:23;11.48;71.41
75022;SHT31;63583;49.976;20.182;2023-04-01T07:17:08;11.45;70.88
75022;SHT31;63583;49.976;20.182;2023-04-01T07:19:53;11.35;71.30
75022;SHT31;63583;49.976;20.182;2023-04-01T07:22:29;11.32;71.00
75022;SHT31;63583;49.976;20.182;2023-04-01T07:24:57;11.43;71.06
75022;SHT31;63583;49.976;20.182;2023-04-01T07:27:26;11.38;71.75
75022;SHT31;63583;49.976;20.182;2023-04-01T07:29:56;11.29;71.41
75022;SHT31;63583;49.976;20.182;2023-04-01T07:35:03;11.39;71.94
75022;SHT31;63583;49.976;20.182;2023-04-01T07:37:46;11.34;72.11
75022;SHT31;63583;49.976;20.182;2023-04-01T07:40:25;11.29;72.23
75022;SHT31;63583;49.976;20.182;2023-04-01T07:43:06;11.41;71.26
75022;SHT31;63583;49.976;20.182;2023-04-01T07:56:37;11.56;71.74
75022;SHT31;63583;49.976;20.182;2023-04-01T07:59:26;11.61;71.40
75022;SHT31;63583;49.976;20.182;2023-04-01T08:02:13;11.87;70.74
75022;SHT31;63583;49.976;20.182;2023-04-01T08:08:06;12.01;70.42
75022;SHT31;63583;49.976;20.182;2023-04-01T08:15:55;12.20;69.10
75022;SHT31;63583;49.976;20.182;2023-04-01T08:20:58;12.13;69.87
75022;SHT31;63583;49.976;20.182;2023-04-01T08:23:31;12.04;69.44
75022;SHT31;63583;49.976;20.182;2023-04-01T08:26:02;12.12;68.80
75022;SHT31;63583;49.976;20.182;2023-04-01T08:28:46;12.10;67.82
75022;SHT31;63583;49.976;20.182;2023-04-01T08:33:55;12.01;68.11
75022;SHT31;63583;49.976;20.182;2023-04-01T08:36:39;12.00;67.72
75022;SHT31;63583;49.976;20.182;2023-04-01T08:39:32;11.91;67.71
75022;SHT31;63583;49.976;20.182;2023-04-01T08:51:16;12.20;68.69
75022;SHT31;63583;49.976;20.182;2023-04-01T08:56:42;12.48;67.62
75022;SHT31;63583;49.976;20.182;2023-04-01T09:05:17;12.75;66.39
75022;SHT31;63583;49.976;20.182;2023-04-01T09:16:23;12.96;64.36
75022;SHT31;63583;49.976;20.182;2023-04-01T09:21:57;12.69;65.32
75022;SHT31;63583;49.976;20.182;2023-04-01T09:24:35;12.76;66.21
75022;SHT31;63583;49.976;20.182;2023-04-01T09:27:27;12.79;65.94
75022;SHT31;63583;49.976;20.182;2023-04-01T09:35:48;12.85;66.41
75022;SHT31;63583;49.976;20.182;2023-04-01T09:44:02;12.75;65.95
75022;SHT31;63583;49.976;20.182;2023-04-01T10:00:10;13.16;64.94
75022;SHT31;63583;49.976;20.182;2023-04-01T10:05:48;13.16;64.44
75022;SHT31;63583;49.976;20.182;2023-04-01T10:20:01;12.71;66.31
75022;SHT31;63583;49.976;20.182;2023-04-01T10:28:03;12.78;66.28
75022;SHT31;63583;49.976;20.182;2023-04-01T10:31:01;12.71;66.15
75022;SHT31;63583;49.976;20.182;2023-04-01T10:36:41;12.42;66.03
75022;SHT31;63583;49.976;20.182;2023-04-01T10:39:34;12.38;66.91
75022;SHT31;63583;49.976;20.182;2023-04-01T10:42:35;12.24;68.10
75022;SHT31;63583;49.976;20.182;2023-04-01T10:45:29;12.30;68.08
75022;SHT31;63583;49.976;20.182;2023-04-01T10:56:36;12.49;68.48
75022;SHT31;63583;49.976;20.182;2023-04-01T10:59:19;12.46;68.46
75022;SHT31;63583;49.976;20.182;2023-04-01T11:01:59;12.31;68.15
75022;SHT31;63583;49.976;20.182;2023-04-01T11:04:59;12.18;68.34
75022;SHT31;63583;49.976;20.182;2023-04-01T11:10:57;12.40;68.84
75022;SHT31;63583;49.976;20.182;2023-04-01T11:33:07;14.01;63.39
75022;SHT31;63583;49.976;20.182;2023-04-01T11:50:20;13.43;62.70
75022;SHT31;63583;49.976;20.182;2023-04-01T11:52:59;13.33;62.28
75022;SHT31;63583;49.976;20.182;2023-04-01T11:55:33;13.07;62.90
75022;SHT31;63583;49.976;20.182;2023-04-01T12:06:01;13.13;64.21
75022;SHT31;63583;49.976;20.182;2023-04-01T12:08:39;13.28;64.65
75022;SHT31;63583;49.976;20.182;2023-04-01T12:11:17;13.33;63.35
75022;SHT31;63583;49.976;20.182;2023-04-01T12:14:02;13.38;63.84
75022;SHT31;63583;49.976;20.182;2023-04-01T12:20:29;13.26;64.39
75022;SHT31;63583;49.976;20.182;2023-04-01T12:28:25;12.55;69.76
75022;SHT31;63583;49.976;20.182;2023-04-01T12:37:03;12.97;68.82
75022;SHT31;63583;49.976;20.182;2023-04-01T12:45:45;13.40;65.98
75022;SHT31;63583;49.976;20.182;2023-04-01T12:48:30;13.67;65.98
75022;SHT31;63583;49.976;20.182;2023-04-01T12:56:39;13.69;64.61
75022;SHT31;63583;49.976;20.182;2023-04-01T13:02:01;13.57;64.54
75022;SHT31;63583;49.976;20.182;2023-04-01T13:08:03;13.64;64.15
75022;SHT31;63583;49.976;20.182;2023-04-01T13:10:54;14.01;63.94
75022;SHT31;63583;49.976;20.182;2023-04-01T13:19:05;14.20;63.79
75022;SHT31;63583;49.976;20.182;2023-04-01T13:24:28;13.85;63.56
75022;SHT31;63583;49.976;20.182;2023-04-01T13:32:20;13.51;66.22
75022;SHT31;63583;49.976;20.182;2023-04-01T13:38:01;13.79;65.17
75022;SHT31;63583;49.976;20.182;2023-04-01T13:43:26;13.81;66.29
75022;SHT31;63583;49.976;20.182;2023-04-01T13:54:08;12.86;70.79
75022;SHT31;63583;49.976;20.182;2023-04-01T14:08:11;12.45;69.56
75022;SHT31;63583;49.976;20.182;2023-04-01T14:13:22;12.18;71.03
75022;SHT31;63583;49.976;20.182;2023-04-01T14:16:14;12.00;72.49
75022;SHT31;63583;49.976;20.182;2023-04-01T14:23:57;11.98;74.86
75022;SHT31;63583;49.976;20.182;2023-04-01T14:26:30;12.13;73.42
75022;SHT31;63583;49.976;20.182;2023-04-01T14:31:48;12.51;72.52
75022;SHT31;63583;49.976;20.182;2023-04-01T14:34:23;12.71;70.37
75022;SHT31;63583;49.976;20.182;2023-04-01T14:37:01;12.85;69.75
75022;SHT31;63583;49.976;20.182;2023-04-01T14:39:43;12.99;68.59
75022;SHT31;63583;49.976;20.182;2023-04-01T14:47:44;12.65;69.03
75022;SHT31;63583;49.976;20.182;2023-04-01T14:50:13;12.63;69.45
75022;SHT31;63583;49.976;20.182;2023-04-01T14:52:43;12.62;70.67
75022;SHT31;63583;49.976;20.182;2023-04-01T14:55:44;12.68;70.32
75022;SHT31;63583;49.976;20.182;2023-04-01T14:58:15;12.52;69.61
75022;SHT31;63583;49.976;20.182;2023-04-01T15:03:22;12.40;70.95
75022;SHT31;63583;49.976;20.182;2023-04-01T15:11:54;12.21;71.91
75022;SHT31;63583;49.976;20.182;2023-04-01T15:17:35;12.24;72.05
75022;SHT31;63583;49.976;20.182;2023-04-01T15:20:25;12.13;72.03
75022;SHT31;63583;49.976;20.182;2023-04-01T15:34:09;12.00;73.30
75022;SHT31;63583;49.976;20.182;2023-04-01T15:36:57;11.98;73.24
75022;SHT31;63583;49.976;20.182;2023-04-01T15:39:48;12.08;73.43
75022;SHT31;63583;49.976;20.182;2023-04-01T15:42:27;12.03;73.87
75022;SHT31;63583;49.976;20.182;2023-04-01T15:47:39;11.87;74.85
75022;SHT31;63583;49.976;20.182;2023-04-01T15:50:27;11.94;74.77
75022;SHT31;63583;49.976;20.182;2023-04-01T15:55:59;11.80;75.38
75022;SHT31;63583;49.976;20.182;2023-04-01T15:58:51;11.83;74.62
75022;SHT31;63583;49.976;20.182;2023-04-01T16:01:34;11.66;75.75
75022;SHT31;63583;49.976;20.182;2023-04-01T16:07:27;11.25;79.01
75022;SHT31;63583;49.976;20.182;2023-04-01T16:15:37;11.07;80.71
75022;SHT31;63583;49.976;20.182;2023-04-01T16:18:18;11.11;79.92
75022;SHT31;63583;49.976;20.182;2023-04-01T16:21:14;11.04;80.42
75022;SHT31;63583;49.976;20.182;2023-04-01T16:23:56;10.99;80.35
75022;SHT31;63583;49.976;20.182;2023-04-01T16:26:28;10.91;81.00
75022;SHT31;63583;49.976;20.182;2023-04-01T16:29:52;10.99;81.18
75022;SHT31;63583;49.976;20.182;2023-04-01T16:34:47;10.84;80.98
75022;SHT31;63583;49.976;20.182;2023-04-01T16:42:52;10.79;81.82
75022;SHT31;63583;49.976;20.182;2023-04-01T16:45:32;10.81;81.67
75022;SHT31;63583;49.976;20.182;2023-04-01T16:48:15;10.77;82.25
75022;SHT31;63583;49.976;20.182;2023-04-01T16:50:58;10.83;81.60
75022;SHT31;63583;49.976;20.182;2023-04-01T16:56:24;10.70;82.50
75022;SHT31;63583;49.976;20.182;2023-04-01T16:59:06;10.55;83.83
75022;SHT31;63583;49.976;20.182;2023-04-01T17:04:38;10.46;84.40
75022;SHT31;63583;49.976;20.182;2023-04-01T17:10:03;10.31;85.39
75022;SHT31;63583;49.976;20.182;2023-04-01T17:15:37;10.28;85.67
75022;SHT31;63583;49.976;20.182;2023-04-01T17:18:30;10.24;85.57
75022;SHT31;63583;49.976;20.182;2023-04-01T17:21:09;10.22;85.02
75022;SHT31;63583;49.976;20.182;2023-04-01T17:23:38;10.19;85.54
75022;SHT31;63583;49.976;20.182;2023-04-01T17:43:12;10.11;82.20
75022;SHT31;63583;49.976;20.182;2023-04-01T17:45:55;10.01;82.60
75022;SHT31;63583;49.976;20.182;2023-04-01T17:48:49;9.97;83.20
75022;SHT31;63583;49.976;20.182;2023-04-01T17:51:40;9.81;83.53
75022;SHT31;63583;49.976;20.182;2023-04-01T17:57:26;9.71;84.11
75022;SHT31;63583;49.976;20.182;2023-04-01T18:03:00;9.83;84.06
75022;SHT31;63583;49.976;20.182;2023-04-01T18:23:00;9.67;83.84
75022;SHT31;63583;49.976;20.182;2023-04-01T18:25:37;9.69;83.67
75022;SHT31;63583;49.976;20.182;2023-04-01T18:28:20;9.70;83.57
75022;SHT31;63583;49.976;20.182;2023-04-01T18:30:57;9.77;83.41
75022;SHT31;63583;49.976;20.182;2023-04-01T18:39:15;9.67;84.16
75022;SHT31;63583;49.976;20.182;2023-04-01T18:42:08;9.74;83.70
75022;SHT31;63583;49.976;20.182;2023-04-01T18:44:46;9.80;83.29
75022;SHT31;63583;49.976;20.182;2023-04-01T18:50:37;9.83;83.26
75022;SHT31;63583;49.976;20.182;2023-04-01T18:56:09;9.76;83.72
75022;SHT31;63583;49.976;20.182;2023-04-01T19:01:55;9.70;83.84
75022;SHT31;63583;49.976;20.182;2023-04-01T19:04:41;9.74;83.68
75022;SHT31;63583;49.976;20.182;2023-04-01T19:09:52;9.54;84.37
75022;SHT31;63583;49.976;20.182;2023-04-01T19:18:23;9.64;84.43
75022;SHT31;63583;49.976;20.182;2023-04-01T19:21:00;9.73;84.08
75022;SHT31;63583;49.976;20.182;2023-04-01T19:29:10;9.64;84.05
75022;SHT31;63583;49.976;20.182;2023-04-01T19:31:54;9.70;84.07
75022;SHT31;63583;49.976;20.182;2023-04-01T19:34:25;9.63;84.51
75022;SHT31;63583;49.976;20.182;2023-04-01T19:37:01;9.74;84.53
75022;SHT31;63583;49.976;20.182;2023-04-01T19:39:54;9.59;85.48
75022;SHT31;63583;49.976;20.182;2023-04-01T19:42:48;9.54;85.82
75022;SHT31;63583;49.976;20.182;2023-04-01T19:45:26;9.42;86.57
75022;SHT31;63583;49.976;20.182;2023-04-01T19:53:32;9.40;86.76
75022;SHT31;63583;49.976;20.182;2023-04-01T19:56:12;9.46;86.40
75022;SHT31;63583;49.976;20.182;2023-04-01T20:01:22;9.44;87.08
75022;SHT31;63583;49.976;20.182;2023-04-01T20:03:55;9.33;87.46
75022;SHT31;63583;49.976;20.182;2023-04-01T20:09:15;9.36;87.40
75022;SHT31;63583;49.976;20.182;2023-04-01T20:12:05;9.20;88.14
75022;SHT31;63583;49.976;20.182;2023-04-01T20:14:45;9.42;87.59
75022;SHT31;63583;49.976;20.182;2023-04-01T20:25:55;9.28;88.80
75022;SHT31;63583;49.976;20.182;2023-04-01T20:28:30;9.20;89.02
75022;SHT31;63583;49.976;20.182;2023-04-01T20:36:36;9.08;90.39
75022;SHT31;63583;49.976;20.182;2023-04-01T20:42:34;8.99;91.21
75022;SHT31;63583;49.976;20.182;2023-04-01T20:45:22;9.11;91.06
75022;SHT31;63583;49.976;20.182;2023-04-01T20:50:53;9.01;91.43
75022;SHT31;63583;49.976;20.182;2023-04-01T20:53:41;9.08;90.99
75022;SHT31;63583;49.976;20.182;2023-04-01T21:01:41;8.92;92.15
75022;SHT31;63583;49.976;20.182;2023-04-01T21:13:14;8.88;92.44
75022;SHT31;63583;49.976;20.182;2023-04-01T21:21:04;8.84;92.55
75022;SHT31;63583;49.976;20.182;2023-04-01T21:29:18;8.84;92.73
75022;SHT31;63583;49.976;20.182;2023-04-01T21:32:28;8.82;92.74
75022;SHT31;63583;49.976;20.182;2023-04-01T21:35:19;8.88;92.78
75022;SHT31;63583;49.976;20.182;2023-04-01T21:43:21;8.85;92.54
75022;SHT31;63583;49.976;20.182;2023-04-01T21:46:26;8.97;92.33
75022;SHT31;63583;49.976;20.182;2023-04-01T21:55:04;8.85;92.54
75022;SHT31;63583;49.976;20.182;2023-04-01T21:58:12;8.81;93.06
75022;SHT31;63583;49.976;20.182;2023-04-01T22:04:17;8.75;93.24
75022;SHT31;63583;49.976;20.182;2023-04-01T22:09:43;8.70;93.16
75022;SHT31;63583;49.976;20.182;2023-04-01T22:12:15;8.77;93.56
75022;SHT31;63583;49.976;20.182;2023-04-01T22:15:03;8.67;93.58
75022;SHT31;63583;49.976;20.182;2023-04-01T22:18:04;8.63;93.51
75022;SHT31;63583;49.976;20.182;2023-04-01T22:28:27;8.75;93.06
75022;SHT31;63583;49.976;20.182;2023-04-01T22:31:00;8.63;93.55
75022;SHT31;63583;49.976;20.182;2023-04-01T22:33:31;8.57;94.00
75022;SHT31;63583;49.976;20.182;2023-04-01T22:36:13;8.75;93.05
75022;SHT31;63583;49.976;20.182;2023-04-01T22:41:27;8.61;93.80
75022;SHT31;63583;49.976;20.182;2023-04-01T22:43:56;8.71;93.52
75022;SHT31;63583;49.976;20.182;2023-04-01T22:49:12;8.71;92.90
75022;SHT31;63583;49.976;20.182;2023-04-01T22:51:44;8.68;93.02
75022;SHT31;63583;49.976;20.182;2023-04-01T22:54:22;8.75;93.40
75022;SHT31;63583;49.976;20.182;2023-04-01T23:02:09;8.67;93.25
75022;SHT31;63583;49.976;20.182;2023-04-01T23:04:39;8.67;93.71
75022;SHT31;63583;49.976;20.182;2023-04-01T23:07:30;8.59;93.82
75022;SHT31;63583;49.976;20.182;2023-04-01T23:10:02;8.67;93.72
75022;SHT31;63583;49.976;20.182;2023-04-01T23:12:29;8.65;93.75
75022;SHT31;63583;49.976;20.182;2023-04-01T23:15:01;8.65;93.57
75022;SHT31;63583;49.976;20.182;2023-04-01T23:20:32;8.50;94.23
75022;SHT31;63583;49.976;20.182;2023-04-01T23:23:15;8.59;93.82
75022;SHT31;63583;49.976;20.182;2023-04-01T23:25:46;8.60;94.35
75022;SHT31;63583;49.976;20.182;2023-04-01T23:28:18;8.70;93.47
75022;SHT31;63583;49.976;20.182;2023-04-01T23:36:00;8.61;93.74
75022;SHT31;63583;49.976;20.182;2023-04-01T23:38:33;8.67;93.75
75022;SHT31;63583;49.976;20.182;2023-04-01T23:41:00;8.70;93.84
75022;SHT31;63583;49.976;20.182;2023-04-01T23:43:32;8.77;93.49
75022;SHT31;63583;49.976;20.182;2023-04-01T23:46:02;8.77;93.38
75022;SHT31;63583;49.976;20.182;2023-04-01T23:48:43;8.75;93.66
75022;SHT31;63583;49.976;20.182;2023-04-01T23:51:19;8.72;93.64
75022;SHT31;63583;49.976;20.182;2023-04-01T23:53:46;8.64;93.99
75022;SHT31;63583;49.976;20.182;2023-04-01T23:56:16;8.59;94.10
75022;SHT31;63583;49.976;20.182;2023-04-01T23:58:48;8.60;94.08
